createdAt,value
2019-05-25T00:01:09.256Z,21.30
2019-05-25T00:03:40.022Z,20.52
2019-05-25T00:06:10.805Z,21.25
2019-05-25T00:08:41.695Z,24.10
2019-05-25T00:11:12.452Z,17.73
2019-05-25T00:13:43.804Z,17.65
2019-05-25T00:16:14.609Z,20.75
2019-05-25T00:18:45.300Z,15.30
2019-05-25T00:21:16.044Z,16.40
2019-05-25T00:23:46.723Z,14.28
2019-05-25T00:26:17.514Z,14.07
2019-05-25T00:28:48.244Z,14.70
2019-05-25T00:31:19.147Z,12.82
2019-05-25T00:33:49.818Z,14.95
2019-05-25T00:36:20.539Z,17.07
2019-05-25T00:38:51.677Z,11.03
2019-05-25T00:41:22.292Z,15.78
2019-05-25T00:43:53.075Z,12.75
2019-05-25T00:46:23.767Z,12.13
2019-05-25T00:48:54.776Z,12.03
2019-05-25T00:51:26.290Z,9.98
2019-05-25T00:53:57.606Z,11.28
2019-05-25T00:56:28.434Z,11.53
2019-05-25T00:58:59.781Z,13.72
2019-05-25T01:01:32.179Z,14.63
2019-05-25T01:04:07.214Z,12.53
2019-05-25T01:06:38.842Z,11.43
2019-05-25T01:09:10.216Z,12.78
2019-05-25T01:11:41.175Z,13.25
2019-05-25T01:14:13.131Z,9.63
2019-05-25T01:16:44.095Z,13.20
2019-05-25T01:19:14.866Z,9.68
2019-05-25T01:21:45.652Z,11.48
2019-05-25T01:24:16.436Z,13.48
2019-05-25T01:26:47.298Z,9.13
2019-05-25T01:29:18.180Z,11.55
2019-05-25T01:31:48.981Z,11.18
2019-05-25T01:34:19.851Z,10.30
2019-05-25T01:36:50.932Z,10.00
2019-05-25T01:39:21.821Z,12.70
2019-05-25T01:42:11.645Z,10.25
2019-05-25T01:44:42.726Z,12.40
2019-05-25T01:47:13.521Z,13.28
2019-05-25T01:49:44.299Z,9.38
2019-05-25T01:52:15.074Z,16.42
2019-05-25T01:54:58.971Z,10.25
2019-05-25T01:57:18.082Z,10.95
2019-05-25T01:59:48.859Z,10.58
2019-05-25T02:02:19.683Z,10.53
2019-05-25T02:04:50.500Z,10.32
2019-05-25T02:07:21.461Z,11.30
2019-05-25T02:09:52.444Z,14.03
2019-05-25T02:12:23.103Z,11.57
2019-05-25T02:14:53.874Z,10.85
2019-05-25T02:17:24.754Z,12.73
2019-05-25T02:19:55.513Z,12.53
2019-05-25T02:22:26.326Z,13.10
2019-05-25T02:24:56.969Z,10.68
2019-05-25T02:27:27.760Z,11.33
2019-05-25T02:29:59.074Z,12.88
2019-05-25T02:32:30.182Z,11.95
2019-05-25T02:35:00.938Z,11.05
2019-05-25T02:37:32.371Z,14.25
2019-05-25T02:40:03.047Z,14.13
2019-05-25T02:42:33.947Z,12.18
2019-05-25T02:45:05.107Z,10.68
2019-05-25T02:47:35.984Z,11.55
2019-05-25T02:50:09.208Z,13.15
2019-05-25T02:52:39.998Z,10.95
2019-05-25T02:55:13.275Z,12.95
2019-05-25T02:57:44.072Z,9.60
2019-05-25T03:00:15.055Z,10.15
2019-05-25T03:02:45.806Z,12.75
2019-05-25T03:05:17.438Z,10.00
2019-05-25T03:07:48.295Z,11.70
2019-05-25T03:10:19.148Z,10.18
2019-05-25T03:12:49.831Z,12.73
2019-05-25T03:15:20.704Z,11.22
2019-05-25T03:17:51.463Z,13.78
2019-05-25T03:20:22.154Z,12.53
2019-05-25T03:22:53.045Z,10.82
2019-05-25T03:25:23.718Z,10.40
2019-05-25T03:27:54.409Z,13.48
2019-05-25T03:30:28.144Z,13.78
2019-05-25T03:32:59.166Z,11.48
2019-05-25T03:35:29.904Z,10.72
2019-05-25T03:38:00.578Z,10.75
2019-05-25T03:40:31.464Z,10.88
2019-05-25T03:43:02.304Z,11.45
2019-05-25T03:45:36.284Z,11.38
2019-05-25T03:48:07.117Z,8.85
2019-05-25T03:50:38.018Z,12.37
2019-05-25T03:53:08.789Z,11.90
2019-05-25T03:55:39.556Z,13.32
2019-05-25T03:58:10.238Z,11.48
2019-05-25T04:00:41.185Z,15.32
2019-05-25T04:03:12.097Z,10.23
2019-05-25T04:05:42.962Z,14.50
2019-05-25T04:08:14.283Z,14.70
2019-05-25T04:10:45.269Z,15.50
2019-05-25T04:13:16.193Z,14.87
2019-05-25T04:15:47.127Z,10.48
2019-05-25T04:18:19.606Z,13.83
2019-05-25T04:20:50.506Z,12.20
2019-05-25T04:23:21.345Z,9.80
2019-05-25T04:25:53.439Z,9.85
2019-05-25T04:28:24.247Z,9.58
2019-05-25T04:30:55.083Z,14.03
2019-05-25T04:33:25.861Z,18.50
2019-05-25T04:35:56.743Z,10.82
2019-05-25T04:38:27.455Z,15.32
2019-05-25T04:40:58.260Z,15.55
2019-05-25T04:43:29.118Z,11.97
2019-05-25T04:46:00.101Z,15.05
2019-05-25T04:48:31.189Z,9.28
2019-05-25T04:51:02.072Z,11.35
2019-05-25T04:53:32.888Z,13.40
2019-05-25T04:56:03.831Z,12.80
2019-05-25T04:58:34.614Z,11.75
2019-05-25T05:01:05.402Z,13.25
2019-05-25T05:03:36.313Z,12.88
2019-05-25T05:06:07.080Z,12.63
2019-05-25T05:08:45.104Z,11.90
2019-05-25T05:11:16.018Z,11.25
2019-05-25T05:13:46.787Z,9.90
2019-05-25T05:16:17.763Z,12.18
2019-05-25T05:18:48.795Z,13.00
2019-05-25T05:21:20.151Z,13.65
2019-05-25T05:23:51.161Z,12.00
2019-05-25T05:26:21.946Z,11.03
2019-05-25T05:28:52.813Z,12.20
2019-05-25T05:31:23.984Z,11.60
2019-05-25T05:33:57.714Z,10.18
2019-05-25T05:38:58.340Z,10.05
2019-05-25T05:41:31.151Z,8.95
2019-05-25T05:44:01.614Z,12.60
2019-05-25T05:46:32.343Z,12.73
2019-05-25T05:49:03.141Z,9.88
2019-05-25T05:51:37.513Z,11.38
2019-05-25T05:54:08.308Z,12.50
2019-05-25T05:56:40.372Z,12.30
2019-05-25T05:59:11.327Z,12.37
2019-05-25T06:01:42.144Z,12.55
2019-05-25T06:04:13.057Z,13.50
2019-05-25T06:06:43.878Z,17.40
2019-05-25T06:09:14.800Z,13.80
2019-05-25T06:11:45.456Z,14.03
2019-05-25T06:14:16.512Z,11.50
2019-05-25T06:16:47.389Z,9.75
2019-05-25T06:19:18.100Z,12.70
2019-05-25T06:21:48.982Z,14.33
2019-05-25T06:24:19.776Z,11.35
2019-05-25T06:26:50.552Z,10.23
2019-05-25T06:29:21.459Z,11.55
2019-05-25T06:31:52.262Z,13.18
2019-05-25T06:34:23.177Z,14.20
2019-05-25T06:36:54.045Z,12.53
2019-05-25T06:39:25.012Z,13.38
2019-05-25T06:41:55.810Z,13.90
2019-05-25T06:44:26.735Z,17.42
2019-05-25T06:46:57.742Z,16.57
2019-05-25T06:49:28.532Z,13.93
2019-05-25T06:51:59.294Z,12.20
2019-05-25T06:54:30.117Z,11.20
2019-05-25T06:57:00.862Z,12.82
2019-05-25T06:59:31.663Z,12.37
2019-05-25T07:02:02.619Z,12.68
2019-05-25T07:04:33.649Z,10.50
2019-05-25T07:07:04.586Z,14.58
2019-05-25T07:09:35.458Z,10.93
2019-05-25T07:12:06.130Z,13.90
2019-05-25T07:14:38.044Z,13.10
2019-05-25T07:17:10.689Z,10.15
2019-05-25T07:19:41.566Z,9.30
2019-05-25T07:22:12.338Z,13.90
2019-05-25T07:24:44.906Z,14.93
2019-05-25T07:27:15.850Z,11.57
2019-05-25T07:29:46.784Z,14.53
2019-05-25T07:32:17.533Z,15.35
2019-05-25T07:34:48.708Z,13.53
2019-05-25T07:37:20.127Z,13.75
2019-05-25T07:39:50.888Z,12.47
2019-05-25T07:42:21.850Z,10.32
2019-05-25T07:44:52.642Z,12.30
2019-05-25T07:47:23.429Z,12.33
2019-05-25T07:49:54.131Z,10.45
2019-05-25T07:52:25.579Z,10.78
2019-05-25T07:54:56.696Z,9.48
2019-05-25T07:57:28.697Z,14.15
2019-05-25T07:59:59.741Z,10.30
2019-05-25T08:02:30.624Z,10.23
2019-05-25T08:05:01.397Z,10.58
2019-05-25T08:07:32.170Z,10.13
2019-05-25T08:10:02.530Z,13.20
2019-05-25T08:12:33.326Z,11.97
2019-05-25T08:15:04.115Z,11.95
2019-05-25T08:17:35.029Z,9.40
2019-05-25T08:20:08.170Z,9.98
2019-05-25T08:22:39.011Z,9.05
2019-05-25T08:25:10.092Z,8.78
2019-05-25T08:27:40.846Z,11.25
2019-05-25T08:30:12.053Z,11.90
2019-05-25T08:32:42.852Z,8.13
2019-05-25T08:35:13.754Z,11.45
2019-05-25T08:37:44.546Z,10.28
2019-05-25T08:40:15.230Z,16.20
2019-05-25T08:42:46.014Z,9.13
2019-05-25T08:45:16.917Z,9.53
2019-05-25T08:47:47.770Z,12.65
2019-05-25T08:50:18.480Z,10.10
2019-05-25T08:52:49.344Z,11.22
2019-05-25T08:55:20.319Z,9.65
2019-05-25T08:57:51.499Z,9.28
2019-05-25T09:00:22.339Z,8.65
2019-05-25T09:02:53.348Z,10.68
2019-05-25T09:05:24.080Z,7.87
2019-05-25T09:07:54.924Z,7.75
2019-05-25T09:10:26.038Z,9.35
2019-05-25T09:12:56.797Z,9.25
2019-05-25T09:15:27.585Z,9.70
2019-05-25T09:17:58.730Z,8.80
2019-05-25T09:20:29.557Z,8.35
2019-05-25T09:23:00.439Z,9.28
2019-05-25T09:25:31.088Z,9.38
2019-05-25T09:28:01.870Z,9.15
2019-05-25T09:30:32.727Z,9.00
2019-05-25T09:33:03.504Z,8.98
2019-05-25T09:35:34.314Z,8.73
2019-05-25T09:38:05.181Z,9.13
2019-05-25T09:40:37.126Z,10.00
2019-05-25T09:43:08.004Z,11.85
2019-05-25T09:45:38.708Z,8.80
2019-05-25T09:48:09.450Z,10.53
2019-05-25T09:50:40.162Z,13.03
2019-05-25T09:53:10.951Z,11.88
2019-05-25T09:55:41.710Z,13.48
2019-05-25T09:58:12.555Z,9.00
2019-05-25T10:00:43.297Z,10.00
2019-05-25T10:03:14.062Z,9.63
2019-05-25T10:05:44.840Z,8.03
2019-05-25T10:08:15.722Z,8.68
2019-05-25T10:10:46.524Z,10.38
2019-05-25T10:13:17.315Z,12.05
2019-05-25T10:15:48.170Z,9.15
2019-05-25T10:18:18.967Z,13.78
2019-05-25T10:20:49.604Z,9.80
2019-05-25T10:23:20.281Z,9.55
2019-05-25T10:25:51.533Z,12.78
2019-05-25T10:28:25.253Z,11.75
2019-05-25T10:30:56.183Z,9.85
2019-05-25T10:33:26.973Z,11.53
2019-05-25T10:35:57.645Z,17.30
2019-05-25T10:38:28.557Z,12.98
2019-05-25T10:40:59.541Z,12.75
2019-05-25T10:43:32.366Z,12.68
2019-05-25T10:46:05.533Z,12.50
2019-05-25T10:48:36.854Z,12.80
2019-05-25T10:51:08.992Z,10.48
2019-05-25T10:53:40.303Z,11.48
2019-05-25T10:56:10.959Z,11.33
2019-05-25T10:58:42.503Z,11.45
2019-05-25T11:01:13.474Z,12.80
2019-05-25T11:03:44.353Z,11.05
2019-05-25T11:06:17.807Z,15.15
2019-05-25T11:08:49.060Z,12.45
2019-05-25T11:11:20.253Z,13.20
2019-05-25T11:13:50.988Z,17.07
2019-05-25T11:16:21.793Z,18.05
2019-05-25T11:18:53.281Z,16.10
2019-05-25T11:21:23.995Z,19.20
2019-05-25T11:23:54.788Z,16.82
2019-05-25T11:26:25.884Z,16.67
2019-05-25T11:28:56.818Z,22.15
2019-05-25T11:31:27.579Z,19.37
2019-05-25T11:33:58.286Z,19.77
2019-05-25T11:36:29.179Z,16.82
2019-05-25T11:39:03.760Z,18.07
2019-05-25T11:41:35.206Z,20.12
2019-05-25T11:44:16.789Z,18.07
2019-05-25T11:46:48.829Z,19.87
2019-05-25T11:49:22.492Z,19.85
2019-05-25T11:51:52.085Z,22.27
2019-05-25T11:54:23.006Z,16.82
2019-05-25T11:56:53.771Z,19.27
2019-05-25T11:59:24.515Z,19.12
2019-05-25T12:01:55.197Z,19.20
2019-05-25T12:04:25.869Z,20.25
2019-05-25T12:06:56.674Z,20.32
2019-05-25T12:09:27.761Z,19.37
2019-05-25T12:11:58.455Z,26.30
2019-05-25T12:14:29.626Z,22.35
2019-05-25T12:17:00.321Z,21.15
2019-05-25T12:19:30.986Z,22.40
2019-05-25T12:22:01.820Z,19.90
2019-05-25T12:24:32.497Z,17.77
2019-05-25T12:27:03.187Z,20.77
2019-05-25T12:29:35.801Z,20.12
2019-05-25T12:32:06.066Z,23.65
2019-05-25T12:34:36.747Z,20.05
2019-05-25T12:37:07.427Z,19.40
2019-05-25T12:39:38.131Z,24.23
2019-05-25T12:42:08.937Z,27.85
2019-05-25T12:44:39.834Z,26.52
2019-05-25T12:47:10.714Z,20.82
2019-05-25T12:49:50.548Z,22.80
2019-05-25T12:52:14.584Z,23.42
2019-05-25T12:54:45.434Z,24.40
2019-05-25T12:57:16.577Z,24.40
2019-05-25T12:59:50.072Z,21.40
2019-05-25T13:02:21.318Z,24.55
2019-05-25T13:04:52.464Z,27.35
2019-05-25T13:07:23.354Z,22.25
2019-05-25T13:09:54.147Z,20.15
2019-05-25T13:12:25.637Z,23.60
2019-05-25T13:14:56.527Z,19.62
2019-05-25T13:17:46.709Z,22.13
2019-05-25T13:20:17.864Z,19.77
2019-05-25T13:22:48.752Z,18.30
2019-05-25T13:25:19.523Z,17.12
2019-05-25T13:27:50.338Z,20.70
2019-05-25T13:30:21.133Z,19.60
2019-05-25T13:32:52.017Z,21.00
2019-05-25T13:35:22.770Z,18.90
2019-05-25T13:37:53.664Z,18.77
2019-05-25T13:40:24.546Z,20.43
2019-05-25T13:42:55.431Z,21.12
2019-05-25T13:45:28.054Z,20.72
2019-05-25T13:47:58.561Z,20.30
2019-05-25T13:50:29.477Z,20.97
2019-05-25T13:53:00.366Z,20.10
2019-05-25T13:55:31.259Z,19.52
2019-05-25T13:58:02.083Z,17.67
2019-05-25T14:00:32.873Z,19.17
2019-05-25T14:03:03.649Z,14.68
2019-05-25T14:05:34.524Z,14.23
2019-05-25T14:08:05.436Z,13.60
2019-05-25T14:10:36.214Z,13.60
2019-05-25T14:13:06.991Z,21.87
2019-05-25T14:15:37.763Z,15.25
2019-05-25T14:18:08.547Z,14.90
2019-05-25T14:20:39.548Z,17.32
2019-05-25T14:23:10.213Z,13.25
2019-05-25T14:25:41.015Z,11.68
2019-05-25T14:28:11.673Z,13.88
2019-05-25T14:30:42.507Z,14.38
2019-05-25T14:33:13.165Z,11.90
2019-05-25T14:35:44.212Z,16.40
2019-05-25T14:38:15.318Z,12.35
2019-05-25T14:40:46.104Z,10.32
2019-05-25T14:43:17.138Z,14.45
2019-05-25T14:45:47.982Z,12.90
2019-05-25T14:48:18.748Z,12.93
2019-05-25T14:50:49.560Z,11.80
2019-05-25T14:53:21.381Z,15.45
2019-05-25T14:55:52.370Z,13.78
2019-05-25T14:58:23.271Z,11.20
2019-05-25T15:00:54.268Z,11.40
2019-05-25T15:03:25.663Z,10.85
2019-05-25T15:05:56.529Z,14.78
2019-05-25T15:08:27.348Z,14.30
2019-05-25T15:10:58.240Z,13.13
2019-05-25T15:13:29.051Z,14.00
2019-05-25T15:15:59.828Z,11.38
2019-05-25T15:18:30.603Z,16.02
2019-05-25T15:21:01.477Z,14.30
2019-05-25T15:23:32.732Z,12.95
2019-05-25T15:26:03.703Z,11.08
2019-05-25T15:28:34.670Z,10.98
2019-05-25T15:31:05.463Z,13.65
2019-05-25T15:33:36.486Z,12.58
2019-05-25T15:36:07.380Z,14.73
2019-05-25T15:38:37.639Z,13.48
2019-05-25T15:41:08.317Z,15.03
2019-05-25T15:43:39.093Z,13.53
2019-05-25T15:46:09.914Z,11.85
2019-05-25T15:48:40.729Z,11.33
2019-05-25T15:51:12.644Z,14.40
2019-05-25T15:53:43.550Z,17.15
2019-05-25T15:56:14.440Z,12.60
2019-05-25T15:58:45.130Z,15.95
2019-05-25T16:01:15.964Z,12.30
2019-05-25T16:03:46.885Z,16.30
2019-05-25T16:06:17.652Z,15.78
2019-05-25T16:08:48.730Z,13.13
2019-05-25T16:11:19.649Z,13.93
2019-05-25T16:13:50.644Z,15.55
2019-05-25T16:16:29.687Z,12.13
2019-05-25T16:18:53.550Z,12.00
2019-05-25T16:21:24.336Z,13.22
2019-05-25T16:23:55.025Z,13.50
2019-05-25T16:26:25.781Z,15.50
2019-05-25T16:28:56.623Z,16.77
2019-05-25T16:31:27.473Z,16.32
2019-05-25T16:33:58.149Z,15.13
2019-05-25T16:36:29.003Z,18.92
2019-05-25T16:38:59.971Z,14.73
2019-05-25T16:41:30.724Z,17.73
2019-05-25T16:44:01.651Z,17.42
2019-05-25T16:46:32.405Z,16.73
2019-05-25T16:49:03.288Z,17.25
2019-05-25T16:51:34.001Z,21.10
2019-05-25T16:54:04.954Z,18.60
2019-05-25T16:56:35.759Z,15.30
2019-05-25T16:59:06.716Z,15.20
2019-05-25T17:01:47.674Z,14.83
2019-05-25T17:04:09.846Z,14.50
2019-05-25T17:06:40.639Z,20.37
2019-05-25T17:09:11.438Z,14.90
2019-05-25T17:11:42.209Z,17.35
2019-05-25T17:14:12.903Z,18.30
2019-05-25T17:16:43.892Z,14.25
2019-05-25T17:19:14.650Z,14.65
2019-05-25T17:21:45.347Z,16.25
2019-05-25T17:24:16.126Z,13.40
2019-05-25T17:26:46.806Z,15.15
2019-05-25T17:29:17.545Z,17.42
2019-05-25T17:31:48.185Z,13.90
2019-05-25T17:34:19.567Z,17.05
2019-05-25T17:36:50.364Z,16.35
2019-05-25T17:39:21.403Z,16.15
2019-05-25T17:41:52.333Z,13.95
2019-05-25T17:44:23.348Z,14.65
2019-05-25T17:46:54.201Z,13.20
2019-05-25T17:49:24.881Z,14.05
2019-05-25T17:51:55.696Z,15.68
2019-05-25T17:54:26.755Z,12.23
2019-05-25T17:56:58.921Z,14.28
2019-05-25T17:59:30.032Z,14.87
2019-05-25T18:02:00.893Z,12.75
2019-05-25T18:04:31.791Z,15.50
2019-05-25T18:07:02.927Z,15.28
2019-05-25T18:09:33.696Z,13.32
2019-05-25T18:12:04.597Z,12.28
2019-05-25T18:14:35.582Z,12.45
2019-05-25T18:17:06.431Z,15.10
2019-05-25T18:19:37.256Z,13.25
2019-05-25T18:22:08.114Z,13.55
2019-05-25T18:24:38.886Z,12.37
2019-05-25T18:27:09.714Z,15.00
2019-05-25T18:29:40.535Z,12.63
2019-05-25T18:32:11.322Z,13.38
2019-05-25T18:34:42.444Z,13.55
2019-05-25T18:37:14.391Z,12.25
2019-05-25T18:39:45.293Z,12.20
2019-05-25T18:42:16.258Z,14.63
2019-05-25T18:44:47.175Z,12.85
2019-05-25T18:47:18.053Z,12.28
2019-05-25T18:49:48.839Z,14.05
2019-05-25T18:52:19.774Z,12.95
2019-05-25T18:54:51.020Z,16.20
2019-05-25T18:57:22.001Z,23.90
2019-05-25T18:59:52.849Z,23.00
2019-05-25T19:02:23.654Z,24.72
2019-05-25T19:04:59.409Z,21.10
2019-05-25T19:07:26.507Z,18.07
2019-05-25T19:09:57.195Z,21.48
2019-05-25T19:12:27.900Z,15.68
2019-05-25T19:14:58.872Z,15.50
2019-05-25T19:17:29.564Z,15.63
2019-05-25T19:20:00.522Z,15.10
2019-05-25T19:22:31.381Z,17.65
2019-05-25T19:25:02.225Z,19.40
2019-05-25T19:27:32.997Z,16.52
2019-05-25T19:30:03.686Z,20.88
2019-05-25T19:32:34.373Z,17.90
2019-05-25T19:35:05.767Z,15.93
2019-05-25T19:37:36.565Z,19.73
2019-05-25T19:40:09.341Z,18.12
2019-05-25T19:42:40.314Z,16.80
2019-05-25T19:45:11.095Z,17.42
2019-05-25T19:47:42.074Z,22.42
2019-05-25T19:50:13.000Z,18.27
2019-05-25T19:52:43.695Z,21.10
2019-05-25T19:55:14.772Z,19.17
2019-05-25T19:57:45.699Z,20.35
2019-05-25T20:00:16.558Z,20.85
2019-05-25T20:02:47.705Z,19.40
2019-05-25T20:05:18.552Z,20.20
2019-05-25T20:07:49.369Z,18.57
2019-05-25T20:10:20.118Z,20.32
2019-05-25T20:12:50.990Z,17.57
2019-05-25T20:15:21.881Z,18.37
2019-05-25T20:17:52.674Z,17.35
2019-05-25T20:20:23.351Z,19.75
2019-05-25T20:22:54.128Z,18.50
2019-05-25T20:25:24.793Z,18.50
2019-05-25T20:27:55.578Z,22.30
2019-05-25T20:30:26.340Z,20.17
2019-05-25T20:32:57.020Z,19.23
2019-05-25T20:35:33.151Z,15.85
2019-05-25T20:37:59.913Z,17.20
2019-05-25T20:40:30.776Z,17.87
2019-05-25T21:04:42.023Z,17.80
2019-05-25T21:07:21.795Z,17.98
2019-05-25T21:09:52.681Z,15.08
2019-05-25T21:12:23.449Z,18.05
2019-05-25T21:14:54.341Z,16.90
2019-05-25T21:17:25.040Z,16.77
2019-05-25T21:19:55.718Z,19.10
2019-05-25T21:22:26.615Z,19.35
2019-05-25T21:24:57.287Z,17.73
2019-05-25T21:27:28.084Z,17.32
2019-05-25T21:29:58.949Z,18.35
2019-05-25T21:32:29.796Z,16.67
2019-05-25T21:35:00.579Z,17.02
2019-05-25T21:37:31.327Z,22.17
2019-05-25T21:40:01.983Z,16.35
2019-05-25T21:42:32.761Z,22.13
2019-05-25T21:45:03.443Z,20.60
2019-05-25T21:47:34.139Z,22.15
2019-05-25T21:50:04.817Z,17.62
2019-05-25T21:52:35.499Z,16.67
2019-05-25T21:55:06.483Z,16.97
2019-05-25T21:57:37.126Z,16.77
2019-05-25T22:00:11.550Z,18.62
2019-05-25T22:02:45.231Z,17.98
2019-05-25T22:05:16.425Z,16.25
2019-05-25T22:07:47.585Z,17.67
2019-05-25T22:10:18.552Z,17.02
2019-05-25T22:12:49.345Z,17.82
2019-05-25T22:15:21.608Z,16.87
2019-05-25T22:17:52.504Z,19.77
2019-05-25T22:20:26.595Z,16.45
2019-05-25T22:22:57.744Z,20.43
2019-05-25T22:25:29.317Z,16.62
2019-05-25T22:28:00.333Z,16.32
2019-05-25T22:30:32.172Z,17.30
2019-05-25T22:33:03.071Z,15.88
2019-05-25T22:35:33.959Z,18.85
2019-05-25T22:38:07.527Z,17.15
2019-05-25T22:40:38.958Z,20.15
2019-05-25T22:43:09.837Z,19.73
2019-05-25T22:45:42.191Z,18.60
2019-05-25T22:48:13.237Z,21.30
2019-05-25T22:50:44.483Z,17.80
2019-05-25T22:53:15.659Z,20.00
2019-05-25T22:55:46.477Z,18.42
2019-05-25T22:58:17.247Z,22.70
2019-05-25T23:00:48.218Z,23.18
2019-05-25T23:03:18.992Z,20.82
2019-05-25T23:05:49.940Z,24.75
2019-05-25T23:08:20.898Z,19.62
2019-05-25T23:10:52.074Z,20.02
2019-05-25T23:13:22.873Z,20.72
2019-05-25T23:15:53.849Z,19.48
2019-05-25T23:18:24.690Z,18.85
2019-05-25T23:20:55.426Z,22.00
2019-05-25T23:23:26.212Z,24.57
2019-05-25T23:25:57.315Z,23.62
2019-05-25T23:28:28.211Z,24.30
2019-05-25T23:30:58.928Z,24.60
2019-05-25T23:33:29.784Z,29.55
2019-05-25T23:36:00.495Z,27.32
2019-05-25T23:38:31.251Z,24.27
2019-05-25T23:41:02.039Z,24.60
2019-05-25T23:43:32.817Z,22.55
2019-05-25T23:46:03.641Z,23.75
2019-05-25T23:48:34.425Z,22.55
2019-05-25T23:51:05.432Z,21.75
2019-05-25T23:53:36.251Z,21.27
2019-05-25T23:56:07.052Z,19.70
2019-05-25T23:58:37.707Z,22.62
